San Luis Rey, California
Current Conditions -  °F | °C
As of 10:52 AM on Thursday 30 Oct 2014 (Local Time) from KOKB Reporting Station
Clear Clear  
Wind Chill: 71°   Ceiling: Unl
Heat Index: 71°   Visibility: 10mi
Dew Point: 50°   Wind: 0mph
Humidity: 47%   Direction: NA
Pressure: 29.98"   Gusts: NA
Location:  33.23°N, 117.33°W
Report Text: KOKB 301752Z AUTO 00000KT 10SM CLR 22/10 A2998 RMK AO2 SLP152 T02170100 10217 20122 50002
Loading
Personal Weather Stations






























Interactive Weather Map
Tropical Storm Tracking
New forecast layout! Learn more

10-Day Weather Forecast

Advertisements
Track Severe Weather on mobile